createdAt,value
2023-02-15T00:00:00.937Z,60.95
2023-02-15T00:02:27.826Z,61.48
2023-02-15T00:04:56.592Z,61.08
2023-02-15T00:07:23.376Z,61.33
2023-02-15T00:09:50.179Z,61.33
2023-02-15T00:12:17.510Z,61.27
2023-02-15T00:14:44.584Z,61.35
2023-02-15T00:17:11.381Z,61.29
2023-02-15T00:19:38.217Z,60.97
2023-02-15T00:22:04.957Z,61.13
2023-02-15T00:24:31.735Z,61.37
2023-02-15T00:26:58.833Z,61.25
2023-02-15T00:29:26.024Z,61.33
2023-02-15T00:31:53.373Z,61.23
2023-02-15T00:34:23.974Z,61.27
2023-02-15T00:36:51.032Z,60.95
2023-02-15T00:39:18.858Z,61.20
2023-02-15T00:41:47.292Z,61.02
2023-02-15T00:44:14.870Z,61.09
2023-02-15T00:46:41.757Z,60.75
2023-02-15T00:49:08.612Z,60.95
2023-02-15T00:51:35.460Z,61.10
2023-02-15T00:54:02.313Z,61.06
2023-02-15T00:56:29.387Z,61.07
2023-02-15T00:58:56.571Z,61.46
2023-02-15T01:01:24.450Z,60.83
2023-02-15T01:03:51.264Z,61.18
2023-02-15T01:06:18.842Z,61.17
2023-02-15T01:08:47.159Z,61.24
2023-02-15T01:11:24.642Z,61.06
2023-02-15T01:13:57.621Z,60.87
2023-02-15T01:16:27.749Z,61.52
2023-02-15T01:18:55.559Z,61.08
2023-02-15T01:21:26.103Z,61.09
2023-02-15T01:23:53.016Z,61.03
2023-02-15T01:26:20.049Z,61.08
2023-02-15T01:28:47.052Z,61.06
2023-02-15T01:31:18.077Z,61.14
2023-02-15T01:33:45.223Z,61.13
2023-02-15T01:36:12.080Z,61.15
2023-02-15T01:38:40.603Z,61.32
2023-02-15T01:41:27.167Z,61.47
2023-02-15T01:44:00.785Z,60.80
2023-02-15T01:46:38.434Z,61.65
2023-02-15T01:49:19.177Z,61.15
2023-02-15T01:51:49.578Z,61.33
2023-02-15T01:54:25.650Z,61.10
2023-02-15T01:56:55.877Z,61.02
2023-02-15T01:59:29.377Z,60.74
2023-02-15T02:01:59.618Z,60.70
2023-02-15T02:04:34.943Z,60.98
2023-02-15T02:07:10.591Z,60.73
2023-02-15T02:09:37.943Z,61.16
2023-02-15T03:12:47.608Z,61.35
2023-02-15T03:16:01.925Z,61.55
2023-02-15T03:19:04.184Z,61.80
2023-02-15T03:22:51.106Z,61.38
2023-02-15T03:26:06.069Z,61.33
2023-02-15T03:29:08.868Z,61.31
2023-02-15T03:31:46.433Z,61.75
2023-02-15T03:34:15.869Z,61.55
2023-02-15T03:37:14.773Z,61.29
2023-02-15T03:40:39.304Z,61.69
2023-02-15T03:43:24.867Z,61.10
2023-02-15T03:45:59.404Z,61.40
2023-02-15T03:48:32.596Z,61.23
2023-02-15T03:51:28.080Z,61.29
2023-02-15T03:53:56.369Z,61.25
2023-02-15T03:56:23.186Z,61.49
2023-02-15T03:59:14.134Z,61.50
2023-02-15T04:02:10.452Z,61.21
2023-02-15T04:04:50.808Z,61.55
2023-02-15T04:07:33.337Z,61.21
2023-02-15T04:10:31.298Z,61.28
2023-02-15T04:13:01.020Z,61.48
2023-02-15T04:15:55.299Z,61.44
2023-02-15T04:18:22.119Z,61.06
2023-02-15T04:21:09.896Z,61.41
2023-02-15T04:23:58.505Z,61.52
2023-02-15T04:26:30.422Z,61.26
2023-02-15T04:28:59.792Z,61.71
2023-02-15T04:31:26.711Z,61.29
2023-02-15T04:34:07.150Z,61.47
2023-02-15T04:36:39.614Z,61.30
2023-02-15T04:39:17.522Z,61.64
2023-02-15T04:42:02.580Z,61.02
2023-02-15T04:44:35.150Z,61.10
2023-02-15T04:47:10.774Z,61.28
2023-02-15T04:49:37.656Z,61.36
2023-02-15T04:52:10.404Z,61.33
2023-02-15T04:54:37.581Z,61.29
2023-02-15T04:57:13.883Z,61.48
2023-02-15T04:59:46.732Z,61.51
2023-02-15T05:02:19.527Z,61.66
2023-02-15T05:04:46.503Z,61.23
2023-02-15T05:07:13.312Z,61.53
2023-02-15T05:09:40.106Z,61.26
2023-02-15T05:12:07.234Z,61.32
2023-02-15T05:14:33.988Z,61.40
2023-02-15T05:17:32.897Z,61.09
2023-02-15T05:20:22.367Z,61.13
2023-02-15T05:23:15.545Z,60.93
2023-02-15T05:26:21.968Z,61.37
2023-02-15T05:31:10.747Z,61.31
2023-02-15T05:32:46.100Z,61.43
2023-02-15T05:35:28.190Z,61.18
2023-02-15T05:39:01.628Z,61.78
2023-02-15T05:42:02.767Z,61.36
2023-02-15T05:44:43.666Z,61.58
2023-02-15T05:47:39.293Z,61.45
2023-02-15T05:50:32.950Z,61.26
2023-02-15T05:53:24.644Z,61.71
2023-02-15T05:56:30.249Z,61.86
2023-02-15T06:02:17.479Z,62.12
2023-02-15T06:04:58.611Z,61.72
2023-02-15T06:08:07.410Z,62.04
2023-02-15T06:11:03.024Z,61.58
2023-02-15T06:13:38.532Z,61.58
2023-02-15T06:16:07.294Z,62.06
2023-02-15T06:18:34.785Z,62.00
2023-02-15T06:21:01.538Z,61.63
2023-02-15T06:23:28.468Z,61.59
2023-02-15T06:25:55.282Z,61.64
2023-02-15T06:28:43.837Z,61.67
2023-02-15T06:31:36.791Z,61.80
2023-02-15T06:34:23.169Z,61.45
2023-02-15T06:37:24.671Z,62.27
2023-02-15T06:39:51.450Z,61.56
2023-02-15T06:42:19.192Z,62.04
2023-02-15T06:44:46.536Z,61.71
2023-02-15T06:47:13.327Z,61.78
2023-02-15T06:49:40.141Z,61.95
2023-02-15T06:52:07.109Z,61.89
2023-02-15T06:54:34.015Z,61.68
2023-02-15T06:57:00.741Z,61.90
2023-02-15T06:59:28.557Z,61.81
2023-02-15T07:01:55.425Z,62.11
2023-02-15T07:04:22.411Z,62.04
2023-02-15T07:06:49.182Z,62.30
2023-02-15T07:09:15.977Z,62.23
2023-02-15T07:12:01.085Z,62.16
2023-02-15T07:14:29.028Z,62.32
2023-02-15T07:16:55.934Z,62.27
2023-02-15T07:19:22.692Z,62.74
2023-02-15T07:21:49.491Z,62.13
2023-02-15T07:24:16.283Z,62.38
2023-02-15T07:26:43.074Z,63.03
2023-02-15T07:29:09.968Z,62.62
2023-02-15T07:31:36.727Z,62.92
2023-02-15T07:34:03.508Z,63.47
2023-02-15T07:36:30.342Z,63.10
2023-02-15T07:38:57.130Z,63.35
2023-02-15T07:41:24.563Z,63.74
2023-02-15T07:43:51.365Z,63.65
2023-02-15T07:46:19.989Z,63.12
2023-02-15T07:48:46.856Z,62.62
2023-02-15T07:51:15.376Z,62.07
2023-02-15T07:53:44.780Z,62.01
2023-02-15T07:56:14.377Z,61.84
2023-02-15T07:58:52.332Z,61.40
2023-02-15T08:01:24.724Z,61.38
2023-02-15T08:03:52.042Z,61.02
2023-02-15T08:06:27.145Z,60.74
2023-02-15T08:08:54.346Z,61.06
2023-02-15T08:11:26.271Z,60.87
2023-02-15T08:13:57.106Z,60.75
2023-02-15T08:16:32.101Z,61.01
2023-02-15T08:19:06.147Z,61.31
2023-02-15T08:21:35.169Z,61.71
2023-02-15T08:24:02.980Z,61.44
2023-02-15T08:26:30.614Z,61.70
2023-02-15T08:28:58.683Z,62.18
2023-02-15T08:31:25.917Z,62.31
2023-02-15T08:33:55.451Z,62.56
2023-02-15T08:36:26.108Z,62.56
2023-02-15T08:38:52.934Z,62.82
2023-02-15T08:41:40.041Z,62.70
2023-02-15T08:44:08.984Z,63.25
2023-02-15T08:46:41.002Z,63.62
2023-02-15T08:49:08.391Z,63.97
2023-02-15T08:51:38.746Z,64.19
2023-02-15T08:54:10.300Z,64.06
2023-02-15T08:56:40.562Z,63.94
2023-02-15T08:59:16.019Z,64.06
2023-02-15T09:01:43.472Z,64.34
2023-02-15T09:04:10.772Z,64.21
2023-02-15T09:06:42.198Z,64.15
2023-02-15T09:09:09.251Z,64.36
2023-02-15T09:11:43.371Z,64.41
2023-02-15T09:14:18.785Z,64.74
2023-02-15T09:16:49.357Z,64.53
2023-02-15T09:19:18.990Z,64.55
2023-02-15T09:21:47.605Z,64.37
2023-02-15T09:24:16.826Z,64.48
2023-02-15T09:26:46.775Z,64.59
2023-02-15T09:29:14.837Z,64.19
2023-02-15T09:31:46.054Z,64.29
2023-02-15T09:34:14.502Z,64.37
2023-02-15T09:36:42.241Z,64.16
2023-02-15T09:39:18.173Z,64.30
2023-02-15T09:42:11.532Z,63.90
2023-02-15T09:45:15.800Z,64.19
2023-02-15T09:48:28.474Z,64.07
2023-02-15T09:51:31.218Z,64.38
2023-02-15T09:54:30.430Z,64.03
2023-02-15T09:57:07.135Z,64.15
2023-02-15T10:00:13.856Z,63.93
2023-02-15T10:03:30.017Z,64.05
2023-02-15T10:06:25.461Z,63.79
2023-02-15T10:09:32.454Z,63.86
2023-02-15T10:12:24.368Z,64.04
2023-02-15T10:14:53.855Z,63.95
2023-02-15T10:17:44.335Z,63.61
2023-02-15T10:20:40.794Z,63.71
2023-02-15T10:23:41.269Z,63.47
2023-02-15T10:26:23.608Z,63.44
2023-02-15T10:29:17.138Z,63.69
2023-02-15T10:31:53.910Z,63.48
2023-02-15T10:34:29.155Z,63.64
2023-02-15T10:37:18.708Z,63.58
2023-02-15T10:40:12.954Z,63.45
2023-02-15T10:42:54.699Z,63.35
2023-02-15T10:45:30.876Z,63.07
2023-02-15T10:48:30.959Z,63.11
2023-02-15T10:51:01.704Z,62.49
2023-02-15T10:54:06.248Z,62.77
2023-02-15T10:57:10.593Z,62.49
2023-02-15T11:00:08.676Z,62.78
2023-02-15T11:03:01.518Z,62.57
2023-02-15T11:05:41.531Z,62.36
2023-02-15T11:08:11.480Z,62.28
2023-02-15T11:10:45.575Z,62.01
2023-02-15T11:13:18.219Z,62.43
2023-02-15T11:15:56.359Z,62.04
2023-02-15T11:18:35.516Z,61.88
2023-02-15T11:21:14.560Z,62.33
2023-02-15T11:23:47.963Z,62.09
2023-02-15T11:26:35.948Z,62.14
2023-02-15T11:29:15.405Z,61.84
2023-02-15T11:31:56.005Z,61.66
2023-02-15T11:34:37.449Z,61.43
2023-02-15T11:37:18.170Z,61.34
2023-02-15T11:39:45.292Z,61.19
2023-02-15T11:42:19.843Z,61.54
2023-02-15T11:45:03.585Z,61.60
2023-02-15T11:47:30.408Z,61.49
2023-02-15T11:49:58.637Z,61.11
2023-02-15T11:52:25.436Z,60.95
2023-02-15T11:54:53.397Z,60.76
2023-02-15T11:57:32.813Z,60.43
2023-02-15T12:00:27.704Z,60.88
2023-02-15T12:02:58.409Z,60.94
2023-02-15T12:05:28.444Z,60.89
2023-02-15T12:08:24.909Z,60.82
2023-02-15T12:11:36.994Z,61.05
2023-02-15T12:14:10.633Z,60.83
2023-02-15T12:16:55.979Z,61.30
2023-02-15T12:19:32.392Z,60.84
2023-02-15T12:22:00.825Z,60.71
2023-02-15T12:24:32.889Z,60.71
2023-02-15T12:27:04.682Z,60.43
2023-02-15T12:29:48.638Z,60.41
2023-02-15T12:32:29.907Z,60.31
2023-02-15T12:35:08.748Z,60.42
2023-02-15T12:37:36.770Z,60.20
2023-02-15T12:40:23.618Z,60.28
2023-02-15T12:42:50.455Z,60.01
2023-02-15T12:45:31.442Z,59.93
2023-02-15T12:48:13.448Z,60.13
2023-02-15T12:50:42.206Z,59.83
2023-02-15T12:53:33.093Z,59.53
2023-02-15T12:56:01.864Z,59.65
2023-02-15T12:58:34.223Z,60.09
2023-02-15T13:01:18.707Z,59.51
2023-02-15T13:03:57.392Z,59.53
2023-02-15T13:06:24.984Z,59.20
2023-02-15T13:08:58.983Z,59.14
2023-02-15T13:11:36.069Z,59.25
2023-02-15T13:14:34.366Z,59.16
2023-02-15T13:17:06.585Z,58.98
2023-02-15T13:19:48.348Z,58.93
2023-02-15T13:22:45.546Z,58.89
2023-02-15T13:25:29.404Z,58.88
2023-02-15T13:28:03.389Z,58.98
2023-02-15T13:30:36.020Z,58.81
2023-02-15T13:33:35.094Z,58.74
2023-02-15T13:36:18.842Z,58.39
2023-02-15T13:39:06.370Z,58.29
2023-02-15T13:41:53.359Z,57.88
2023-02-15T13:44:51.429Z,58.17
2023-02-15T13:47:49.283Z,58.07
2023-02-15T13:50:52.467Z,57.92
2023-02-15T13:53:50.139Z,57.83
2023-02-15T13:56:50.363Z,57.87
2023-02-15T13:59:46.583Z,57.91
2023-02-15T14:02:50.648Z,58.13
2023-02-15T14:05:43.758Z,57.79
2023-02-15T14:08:19.526Z,57.78
2023-02-15T14:10:51.188Z,57.65
2023-02-15T14:13:20.862Z,57.41
2023-02-15T14:16:20.736Z,57.19
2023-02-15T14:18:56.933Z,57.12
2023-02-15T14:21:48.786Z,56.84
2023-02-15T14:24:33.741Z,56.41
2023-02-15T14:27:17.359Z,56.75
2023-02-15T14:30:01.436Z,56.59
2023-02-15T14:32:36.810Z,56.54
2023-02-15T14:35:16.276Z,56.42
2023-02-15T14:37:59.748Z,56.16
2023-02-15T14:41:03.656Z,56.23
2023-02-15T14:44:05.159Z,56.70
2023-02-15T14:47:03.460Z,56.67
2023-02-15T14:49:36.569Z,56.46
2023-02-15T14:52:13.837Z,56.61
2023-02-15T14:54:40.478Z,56.50
2023-02-15T14:57:07.277Z,56.45
2023-02-15T15:00:07.843Z,56.37
2023-02-15T15:02:43.483Z,56.51
2023-02-15T15:05:27.551Z,56.63
2023-02-15T15:07:58.221Z,56.56
2023-02-15T15:11:00.560Z,56.43
2023-02-15T15:13:33.327Z,56.65
2023-02-15T15:16:49.550Z,56.62
2023-02-15T15:19:51.893Z,56.73
2023-02-15T15:22:24.979Z,56.55
2023-02-15T15:25:13.699Z,56.50
2023-02-15T15:27:54.299Z,56.57
2023-02-15T15:30:24.109Z,56.59
2023-02-15T15:32:57.613Z,56.38
2023-02-15T15:36:04.860Z,56.62
2023-02-15T15:39:04.569Z,56.78
2023-02-15T15:42:02.816Z,56.79
2023-02-15T15:44:48.610Z,56.48
2023-02-15T15:47:41.302Z,56.60
2023-02-15T15:50:18.761Z,56.46
2023-02-15T15:52:52.373Z,56.52
2023-02-15T15:55:23.230Z,56.66
2023-02-15T15:57:54.767Z,56.44
2023-02-15T16:00:40.789Z,56.49
2023-02-15T16:03:16.961Z,56.74
2023-02-15T16:05:43.809Z,56.62
2023-02-15T16:08:10.599Z,56.83
2023-02-15T16:10:38.895Z,56.66
2023-02-15T16:13:07.643Z,56.59
2023-02-15T16:15:50.835Z,56.35
2023-02-15T16:18:19.860Z,56.71
2023-02-15T16:20:57.200Z,56.38
2023-02-15T16:23:57.907Z,56.48
2023-02-15T16:26:49.833Z,56.75
2023-02-15T16:29:32.624Z,56.64
2023-02-15T16:32:06.741Z,57.00
2023-02-15T16:34:33.630Z,57.12
2023-02-15T16:37:18.771Z,56.85
2023-02-15T16:39:48.884Z,56.99
2023-02-15T16:42:17.951Z,56.95
2023-02-15T16:44:49.175Z,57.22
2023-02-15T16:47:25.530Z,56.98
2023-02-15T16:49:56.832Z,56.92
2023-02-15T16:52:26.798Z,56.94
2023-02-15T16:55:03.717Z,57.10
2023-02-15T16:57:39.053Z,57.31
2023-02-15T17:00:19.597Z,57.29
2023-02-15T17:03:14.537Z,57.27
2023-02-15T17:05:45.492Z,57.94
2023-02-15T17:08:42.578Z,57.50
2023-02-15T17:11:20.414Z,57.83
2023-02-15T17:14:06.381Z,57.50
2023-02-15T17:16:36.512Z,57.88
2023-02-15T17:19:11.119Z,57.66
2023-02-15T17:22:02.519Z,57.99
2023-02-15T17:24:42.034Z,58.05
2023-02-15T17:27:19.955Z,57.79
2023-02-15T17:29:59.224Z,57.72
2023-02-15T17:32:32.440Z,58.04
2023-02-15T17:35:18.224Z,57.95
2023-02-15T17:37:48.434Z,57.99
2023-02-15T17:40:28.271Z,57.98
2023-02-15T17:42:55.962Z,57.80
2023-02-15T17:55:04.938Z,58.41
2023-02-15T17:57:32.068Z,58.57
2023-02-15T18:00:17.140Z,58.55
2023-02-15T18:03:03.418Z,58.35
2023-02-15T18:05:48.685Z,58.49
2023-02-15T18:08:37.129Z,58.40
2023-02-15T18:11:22.443Z,58.71
2023-02-15T18:13:49.200Z,58.82
2023-02-15T18:16:23.925Z,58.91
2023-02-15T18:18:50.746Z,58.90
2023-02-15T18:21:17.506Z,58.69
2023-02-15T18:23:44.356Z,58.55
2023-02-15T18:26:18.953Z,58.54
2023-02-15T18:28:45.777Z,58.80
2023-02-15T18:31:13.509Z,58.36
2023-02-15T18:33:54.406Z,58.62
2023-02-15T18:36:27.880Z,58.58
2023-02-15T18:38:56.038Z,58.68
2023-02-15T18:41:23.237Z,58.82
2023-02-15T18:43:51.441Z,58.96
2023-02-15T18:46:18.340Z,58.76
2023-02-15T18:48:46.918Z,59.01
2023-02-15T18:51:24.230Z,58.72
2023-02-15T18:53:53.366Z,59.04
2023-02-15T18:56:22.655Z,58.84
2023-02-15T18:58:49.647Z,59.11
2023-02-15T19:01:21.288Z,58.94
2023-02-15T19:03:50.723Z,59.29
2023-02-15T19:06:20.564Z,59.18
2023-02-15T19:08:50.254Z,59.22
2023-02-15T19:11:23.598Z,59.41
2023-02-15T19:13:52.128Z,59.41
2023-02-15T19:16:35.473Z,58.90
2023-02-15T19:19:02.554Z,59.27
2023-02-15T19:21:32.616Z,59.07
2023-02-15T19:24:07.900Z,59.16
2023-02-15T19:26:45.628Z,59.13
2023-02-15T19:29:16.202Z,59.46
2023-02-15T19:31:43.275Z,59.34
2023-02-15T19:34:15.668Z,59.48
2023-02-15T19:36:45.603Z,59.42
2023-02-15T19:39:33.640Z,59.32
2023-02-15T19:42:00.553Z,59.32
2023-02-15T19:44:27.341Z,59.25
2023-02-15T19:46:54.112Z,59.49
2023-02-15T19:49:21.025Z,59.57
2023-02-15T19:51:48.093Z,59.43
2023-02-15T19:54:28.288Z,59.48
2023-02-15T19:56:55.248Z,59.67
2023-02-15T19:59:31.160Z,59.47
2023-02-15T20:01:58.330Z,59.66
2023-02-15T20:04:26.224Z,59.65
2023-02-15T20:06:56.240Z,59.54
2023-02-15T20:09:35.387Z,59.42
2023-02-15T20:12:02.141Z,59.69
2023-02-15T20:14:28.933Z,59.53
2023-02-15T20:16:55.985Z,59.48
2023-02-15T20:19:22.770Z,59.71
2023-02-15T20:21:54.316Z,59.74
2023-02-15T20:24:22.698Z,59.45
2023-02-15T20:26:49.712Z,59.69
2023-02-15T20:29:18.738Z,59.58
2023-02-15T20:31:45.895Z,59.69
2023-02-15T20:34:12.909Z,59.81
2023-02-15T20:36:41.160Z,59.64
2023-02-15T20:39:20.013Z,59.37
2023-02-15T20:41:49.350Z,59.85
2023-02-15T20:44:31.602Z,59.43
2023-02-15T20:47:00.142Z,59.39
2023-02-15T20:49:27.898Z,59.54
2023-02-15T20:51:56.480Z,59.43
2023-02-15T20:54:26.406Z,59.63
2023-02-15T20:56:54.197Z,59.41
2023-02-15T20:59:24.023Z,59.64
2023-02-15T21:01:55.750Z,59.50
2023-02-15T21:04:28.968Z,59.35
2023-02-15T21:06:56.542Z,59.35
2023-02-15T21:09:23.682Z,59.47
2023-02-15T21:11:53.777Z,59.47
2023-02-15T21:14:24.023Z,59.17
2023-02-15T21:16:51.573Z,59.49
2023-02-15T21:19:22.274Z,59.32
2023-02-15T21:21:52.392Z,59.18
2023-02-15T21:24:26.684Z,59.17
2023-02-15T21:26:54.908Z,59.20
2023-02-15T21:29:25.542Z,59.00
2023-02-15T21:31:52.772Z,59.36
2023-02-15T21:34:20.157Z,59.46
2023-02-15T21:36:48.472Z,59.10
2023-02-15T21:39:27.408Z,59.44
2023-02-15T21:42:14.027Z,59.36
2023-02-15T21:44:59.798Z,59.57
2023-02-15T21:47:49.225Z,59.50
2023-02-15T21:50:43.043Z,59.27
2023-02-15T21:53:14.039Z,59.45
2023-02-15T21:55:40.988Z,59.43
2023-02-15T21:58:15.521Z,59.27
2023-02-15T22:00:43.425Z,59.27
2023-02-15T22:03:12.088Z,59.27
2023-02-15T22:05:38.993Z,59.40
2023-02-15T22:08:12.872Z,59.22
2023-02-15T22:10:40.564Z,59.70
2023-02-15T22:13:15.303Z,59.36
2023-02-15T22:15:42.834Z,59.42
2023-02-15T22:18:22.667Z,59.44
2023-02-15T22:20:49.630Z,59.21
2023-02-15T22:23:16.471Z,59.55
2023-02-15T22:25:56.511Z,59.07
2023-02-15T22:28:31.344Z,59.33
2023-02-15T22:30:58.174Z,59.25
2023-02-15T22:33:34.145Z,59.56
2023-02-15T22:36:01.280Z,59.30
2023-02-15T22:38:28.169Z,59.43
2023-02-15T22:40:58.568Z,59.24
2023-02-15T22:43:40.835Z,59.05
2023-02-15T22:46:14.831Z,59.46
2023-02-15T22:48:43.869Z,59.35
2023-02-15T22:51:20.853Z,59.34
2023-02-15T22:53:52.079Z,59.49
2023-02-15T22:56:26.538Z,59.58
2023-02-15T22:59:00.161Z,59.30
2023-02-15T23:01:34.210Z,59.12
2023-02-15T23:04:03.434Z,59.48
2023-02-15T23:06:30.555Z,59.21
2023-02-15T23:08:57.354Z,59.43
2023-02-15T23:11:24.118Z,59.57
2023-02-15T23:13:51.055Z,59.53
2023-02-15T23:16:18.697Z,59.33
2023-02-15T23:18:47.274Z,59.44
2023-02-15T23:21:21.861Z,59.28
2023-02-15T23:23:52.557Z,59.48
2023-02-15T23:26:31.126Z,59.52
2023-02-15T23:29:00.755Z,59.26
2023-02-15T23:31:34.209Z,59.57
2023-02-15T23:34:06.650Z,59.33
2023-02-15T23:36:39.071Z,59.52
2023-02-15T23:39:36.461Z,59.56
2023-02-15T23:42:09.905Z,59.54
2023-02-15T23:44:37.438Z,59.75
2023-02-15T23:47:05.129Z,59.67
2023-02-15T23:49:31.921Z,59.58
2023-02-15T23:52:02.218Z,59.58
2023-02-15T23:54:29.633Z,59.81
2023-02-15T23:57:00.409Z,59.80
2023-02-15T23:59:30.477Z,59.74
